| Date | Time | Temp. (oF) | Dew Point (oF) | Rel. Hum. (%) | Press. (in.) | Wind Dir. | Wind Speed (mph) | Hourly Rainfall (in.) |
|
|---|---|---|---|---|---|---|---|---|---|
| 1 | 05/01 | 00:00 | 61 | 46 | 59 | 30.20 | S | 1 | 0.00 |
| 2 | 04/30 | 23:00 | 62 | 44 | 53 | 30.20 | SSW | 3 | 0.00 |
| 3 | 04/30 | 22:00 | 65 | 44 | 48 | 30.21 | SSW | 3 | 0.00 |
| 4 | 04/30 | 21:00 | 66 | 43 | 45 | 30.21 | S | 7 | 0.00 |
| 5 | 04/30 | 20:00 | 69 | 45 | 43 | 30.21 | S | 3 | 0.00 |
| 6 | 04/30 | 19:00 | 73 | 47 | 40 | 30.19 | SSE | 9 | 0.00 |
| 7 | 04/30 | 18:00 | 75 | 43 | 33 | 30.20 | SSW | 3 | 0.00 |
| 8 | 04/30 | 17:00 | 76 | 44 | 33 | 30.21 | S | 5 | 0.00 |
| 9 | 04/30 | 16:00 | 75 | 45 | 35 | 30.24 | SSW | 7 | 0.00 |
| 10 | 04/30 | 15:00 | 76 | 46 | 35 | 30.28 | ENE | 5 | 0.00 |
| 11 | 04/30 | 14:00 | 73 | 48 | 42 | 30.31 | SE | 2 | 0.00 |
| 12 | 04/30 | 13:00 | 71 | 44 | 39 | 30.34 | SE | 3 | 0.00 |
| 13 | 04/30 | 12:00 | 68 | 43 | 41 | 30.38 | SSE | 4 | 0.00 |
| 14 | 04/30 | 11:00 | 64 | 41 | 44 | 30.40 | S | 7 | 0.00 |
| 15 | 04/30 | 10:00 | 59 | 39 | 48 | 30.42 | S | 0 | 0.00 |
| 16 | 04/30 | 09:00 | 55 | 39 | 55 | 30.44 | SSE | 4 | 0.00 |
| 17 | 04/30 | 08:00 | 47 | 39 | 75 | 30.45 | SSE | 0 | 0.00 |
| 18 | 04/30 | 07:00 | 41 | 36 | 85 | 30.45 | SSW | 0 | 0.00 |
| 19 | 04/30 | 06:00 | 41 | 36 | 85 | 30.44 | WSW | 1 | 0.00 |
| 20 | 04/30 | 05:00 | 42 | 36 | 80 | 30.44 | WSW | 0 | 0.00 |
| 21 | 04/30 | 04:00 | 44 | 35 | 72 | 30.43 | SSW | 0 | 0.00 |
| 22 | 04/30 | 03:00 | 46 | 35 | 67 | 30.44 | SSW | 0 | 0.00 |
| 23 | 04/30 | 02:00 | 48 | 35 | 62 | 30.44 | SSW | 0 | 0.00 |
| 24 | 04/30 | 01:00 | 51 | 36 | 57 | 30.45 | SSW | 1 | 0.00 |